Aérodrome :
LOGIN :

S'inscrire | Disclaimer

   EN    FR    IT 

 










Légende :    VFR   VFR Marginal   IFR   IFR Intensif   IFR Très Intensif
Visi : 
Plafond : 
>= 8 km
>= 3000ft
5 à 8 km
1000 à 3000 ft
1500m à 5 km
500 à 1000 ft
800 à 1500m
200 à 500 ft
< 800m
< 200 ft
Symboles :   Orages  Brouillard  Fortes neiges  Fortes précipitations  Vent > 20 kt
SIGMETs :   Divers  Orages  Givrage  Turbulence  Onde Orograph.  Cendres Volcan.






- Altitude de l'aérodrome : 157 ft
- Code IATA : SXF


EDDB - Berlin Schönefeld

DERNIER METAR :
  • 150220Z 09011KT 9000 BKN013 04/02 Q1008 TEMPO 09015G25KT BKN009

METARs EXPIRÉS :
  • 150150Z 09016KT 9999 BKN014 04/01 Q1009 TEMPO 09015G25KT BKN009
  • 150120Z 09016KT 9999 BKN014 04/01 Q1009 TEMPO 09015G25KT BKN009
  • 150050Z 09014KT 9999 BKN014 04/01 Q1009 TEMPO BKN009
  • 150020Z 09015KT 9999 BKN014 04/01 Q1009 TEMPO BKN009
  • 142350Z 09017KT 9999 BKN014 04/01 Q1010 TEMPO 09015G25KT BKN009

TAF TAF EDDB
Valide du 15 à 00h jusqu'au 16 à 00h UTC


142300Z 1500/1524 08014KT 8000 BKN010
TEMPO 1500/1502 09015G25KT
TEMPO 1500/1509 BKN006
PROB30
TEMPO 1500/1507 4500 BR BKN004
BECMG 1502/1505 09015G25KT
TEMPO 1513/1517 SCT012
BECMG 1515/1517 10009KT



MET'MAP, la Météo Aéronautique d'un coup d'oeil ! - Copyright ORBIFLY Décembre 2007 - Disclaimer

ORBIFLY MET'MAP TEAM :

Programmation & Développement : Alexandra Zaïnal
Conception & Développement : Baudouin d'Aumeries
Co-Programmation & Développement : Marc-Olivier Méhu
Soutien technique & logistique : Manuel Goepfert

Contact : metmap@orbifly.com




SOURCES & CREDITS :

   NOAA